Time;durP1;ratioP1;P1;durP2;ratioP2;P2;SDS_P1;SDS_P2;PMS_P1;PMS_P2;Temp;Humidity;BMP_temperature;BMP_pressure;BME280_temperature;BME280_humidity;BME280_pressure;Samples;Min_cycle;Max_cycle;Signal;HPM_P1;HPM_P2
2022/01/10 00:01:08;;;;;;;48.75;30.08;;;26.20;99.90;;;;;;5052806;28;20052;-72
2022/01/10 00:03:35;;;;;;;46.22;28.40;;;26.20;99.90;;;;;;5055052;28;20028;-75
2022/01/10 00:06:02;;;;;;;52.67;34.42;;;26.20;99.90;;;;;;5056458;28;20107;-73
2022/01/10 00:08:28;;;;;;;50.20;29.25;;;26.20;99.90;;;;;;5056826;28;20037;-72
2022/01/10 00:10:55;;;;;;;43.85;28.27;;;26.10;99.90;;;;;;5056482;28;20067;-72
2022/01/10 00:13:21;;;;;;;50.35;28.52;;;26.10;99.90;;;;;;5056753;28;20040;-72
2022/01/10 00:15:48;;;;;;;54.15;31.33;;;26.10;99.90;;;;;;5056426;28;20071;-74
2022/01/10 00:18:15;;;;;;;49.63;28.42;;;26.20;99.90;;;;;;5056556;28;20021;-72
2022/01/10 00:20:42;;;;;;;83.63;52.78;;;26.20;99.90;;;;;;5056128;28;20470;-73
2022/01/10 00:23:09;;;;;;;81.22;56.78;;;26.30;99.90;;;;;;5056290;28;20466;-75
2022/01/10 00:25:36;;;;;;;65.65;42.97;;;26.40;99.90;;;;;;5056331;28;20060;-76
2022/01/10 00:28:03;;;;;;;61.10;40.00;;;26.30;99.90;;;;;;5054739;28;20495;-74
2022/01/10 00:30:29;;;;;;;52.40;38.50;;;26.30;99.90;;;;;;5055531;28;20025;-75
2022/01/10 00:32:56;;;;;;;67.18;42.38;;;26.40;99.90;;;;;;5054514;28;20385;-74
2022/01/10 00:35:23;;;;;;;67.65;46.30;;;26.50;99.90;;;;;;5055703;28;20104;-70
2022/01/10 00:37:51;;;;;;;59.70;43.55;;;26.50;99.90;;;;;;5055767;28;20025;-73
2022/01/10 00:40:19;;;;;;;130.15;45.45;;;26.50;99.90;;;;;;5056015;28;20021;-72
2022/01/10 00:42:55;;;;;;;61.65;40.90;;;26.50;99.90;;;;;;5055608;28;20033;-73
2022/01/10 00:45:28;;;;;;;83.18;59.22;;;26.60;99.90;;;;;;5055972;28;20025;-74
2022/01/10 00:47:55;;;;;;;;;;;26.60;99.90;;;;;;5054728;28;20021;-72
2022/01/10 00:50:24;;;;;;;52.03;38.50;;;26.60;99.90;;;;;;5055708;28;19909;-70
2022/01/10 00:52:52;;;;;;;65.90;41.63;;;26.60;99.90;;;;;;5055795;28;20052;-72
2022/01/10 00:55:19;;;;;;;149.50;106.13;;;26.70;99.90;;;;;;5055259;28;20029;-73
2022/01/10 00:57:46;;;;;;;85.53;55.05;;;26.70;99.90;;;;;;5055370;28;20025;-73
2022/01/10 01:00:15;;;;;;;98.78;70.28;;;26.70;99.90;;;;;;5055707;28;20350;-75
2022/01/10 01:02:41;;;;;;;90.75;58.17;;;26.70;99.90;;;;;;5055559;28;20021;-72
2022/01/10 01:05:12;;;;;;;73.45;52.03;;;26.70;99.90;;;;;;5055453;28;20033;-74
2022/01/10 01:07:39;;;;;;;72.70;53.17;;;26.80;99.90;;;;;;5055816;28;20021;-72
2022/01/10 01:15:31;;;;;;;61.67;47.47;;;26.80;99.90;;;;;;5054756;28;20033;-74
2022/01/10 01:18:17;;;;;;;75.50;52.08;;;26.80;99.90;;;;;;5054759;28;20017;-70
2022/01/10 01:23:59;;;;;;;77.95;56.00;;;26.80;99.90;;;;;;5055220;28;20053;-73
2022/01/10 01:26:02;;;;;;;77.95;50.20;;;26.90;99.90;;;;;;5055075;28;20032;-71
2022/01/10 01:28:29;;;;;;;52.33;36.10;;;26.90;99.90;;;;;;5067584;28;20080;-71
2022/01/10 01:30:56;;;;;;;57.90;38.72;;;26.80;99.90;;;;;;5072543;28;20100;-73
2022/01/10 01:33:24;;;;;;;48.42;33.03;;;26.80;99.90;;;;;;5055249;28;20084;-71
2022/01/10 01:35:52;;;;;;;53.03;35.30;;;26.70;99.90;;;;;;5054982;28;20036;-73
2022/01/10 01:38:19;;;;;;;49.67;37.63;;;26.80;99.90;;;;;;5055218;28;20021;-74
2022/01/10 01:40:55;;;;;;;55.03;34.17;;;26.70;99.90;;;;;;5054800;28;20031;-73
2022/01/10 01:43:21;;;;;;;53.92;34.33;;;26.70;99.90;;;;;;5054840;28;20481;-73
2022/01/10 01:45:49;;;;;;;58.05;34.97;;;26.80;99.90;;;;;;5054678;28;20017;-71
2022/01/10 01:48:17;;;;;;;55.13;36.20;;;26.80;99.90;;;;;;5054718;28;20059;-74
2022/01/10 01:50:44;;;;;;;58.00;34.22;;;26.80;99.90;;;;;;5054435;28;20028;-72
2022/01/10 01:53:10;;;;;;;75.35;37.55;;;26.90;99.90;;;;;;5054674;28;20431;-72
2022/01/10 01:55:38;;;;;;;69.47;43.70;;;26.90;99.90;;;;;;5054514;28;20471;-71
2022/01/10 01:58:05;;;;;;;62.28;43.17;;;27.00;99.90;;;;;;5054187;28;20033;-71
2022/01/10 02:00:32;;;;;;;62.70;35.30;;;27.00;99.90;;;;;;5054533;28;20028;-74
2022/01/10 02:02:59;;;;;;;57.83;35.17;;;27.10;99.90;;;;;;5053991;28;20048;-71
2022/01/10 02:05:26;;;;;;;56.63;33.33;;;27.10;99.90;;;;;;5047578;28;20481;-69
2022/01/10 02:07:52;;;;;;;57.53;35.97;;;27.00;99.90;;;;;;5034695;28;20071;-70
2022/01/10 02:10:20;;;;;;;58.10;36.53;;;27.00;99.90;;;;;;5048766;28;20033;-69
2022/01/10 02:12:46;;;;;;;57.92;34.30;;;27.00;99.90;;;;;;5061691;28;20037;-70
2022/01/10 02:15:36;;;;;;;48.58;34.05;;;26.90;99.90;;;;;;5071695;28;20056;-68
2022/01/10 02:18:03;;;;;;;54.63;35.33;;;26.90;99.90;;;;;;5067543;28;20048;-68
2022/01/10 02:20:32;;;;;;;45.47;31.13;;;26.90;99.90;;;;;;5054572;28;20025;-67
2022/01/10 02:23:00;;;;;;;52.13;30.90;;;26.90;99.90;;;;;;5053566;28;20025;-70
2022/01/10 02:25:27;;;;;;;48.17;28.63;;;26.80;99.90;;;;;;5044938;28;20034;-69
2022/01/10 02:27:56;;;;;;;49.10;28.25;;;26.80;99.90;;;;;;5037593;28;20082;-69
2022/01/10 02:30:23;;;;;;;52.70;30.75;;;26.80;99.90;;;;;;5054006;28;20037;-70
2022/01/10 02:32:50;;;;;;;48.85;28.85;;;26.80;99.90;;;;;;5052030;28;20061;-69
2022/01/10 02:35:23;;;;;;;41.20;27.02;;;26.80;99.90;;;;;;5043639;28;20076;-72
2022/01/10 02:37:52;;;;;;;42.13;24.35;;;26.90;99.90;;;;;;5050385;28;20103;-70
2022/01/10 02:40:21;;;;;;;42.88;22.17;;;26.90;99.90;;;;;;5052174;28;20040;-70
2022/01/10 02:42:49;;;;;;;39.83;22.75;;;26.80;99.90;;;;;;5053599;28;20051;-68
2022/01/10 02:45:16;;;;;;;39.28;21.40;;;26.90;99.90;;;;;;5053783;28;20025;-70
2022/01/10 02:47:43;;;;;;;36.38;21.05;;;26.90;99.90;;;;;;5053580;28;20029;-71
2022/01/10 02:50:11;;;;;;;32.80;20.08;;;26.90;99.90;;;;;;5053585;28;20572;-72
2022/01/10 02:52:38;;;;;;;37.92;22.35;;;26.90;99.90;;;;;;5051176;28;20487;-69
2022/01/10 02:55:07;;;;;;;29.75;18.40;;;26.90;99.90;;;;;;5053362;28;20051;-69
2022/01/10 02:57:35;;;;;;;18.10;13.38;;;26.90;99.90;;;;;;5033327;28;20029;-69
2022/01/10 03:00:06;;;;;;;14.77;8.40;;;26.70;99.90;;;;;;5037655;28;20027;-69
2022/01/10 03:02:34;;;;;;;19.10;8.40;;;26.50;99.90;;;;;;5053274;28;20074;-72
2022/01/10 03:05:02;;;;;;;15.07;8.25;;;26.40;99.90;;;;;;5049663;28;20078;-73
2022/01/10 03:07:29;;;;;;;12.82;6.93;;;26.40;99.90;;;;;;5049403;28;20033;-72
2022/01/10 03:09:56;;;;;;;12.40;8.15;;;26.20;99.90;;;;;;5052261;28;20032;-69
2022/01/10 03:12:23;;;;;;;30.20;15.60;;;26.20;99.90;;;;;;5053145;28;20041;-70
2022/01/10 03:14:50;;;;;;;18.95;8.52;;;26.20;99.90;;;;;;5053315;28;20032;-69
2022/01/10 03:17:16;;;;;;;17.95;8.35;;;26.20;99.90;;;;;;5053464;28;20079;-73
2022/01/10 03:19:45;;;;;;;44.03;26.65;;;26.30;99.90;;;;;;5058009;28;20033;-72
2022/01/10 03:22:12;;;;;;;32.55;13.82;;;26.30;99.90;;;;;;5050504;28;20021;-72
2022/01/10 03:24:38;;;;;;;18.35;8.90;;;26.40;99.90;;;;;;5052568;28;20032;-69
2022/01/10 03:27:05;;;;;;;16.73;7.78;;;26.40;99.90;;;;;;5046570;28;20037;-73
2022/01/10 03:29:32;;;;;;;43.30;32.58;;;26.40;99.90;;;;;;5052598;28;20048;-70
2022/01/10 03:32:01;;;;;;;40.65;24.48;;;26.40;99.90;;;;;;5053200;28;20029;-70
2022/01/10 03:34:28;;;;;;;27.15;14.27;;;26.40;99.90;;;;;;5051742;28;20021;-70
2022/01/10 03:36:56;;;;;;;28.70;13.63;;;26.30;99.90;;;;;;5054507;28;20509;-70
2022/01/10 03:39:23;;;;;;;26.20;17.45;;;26.30;99.90;;;;;;5057427;28;20029;-73
2022/01/10 03:41:49;;;;;;;23.40;18.38;;;26.20;99.90;;;;;;5050242;28;20028;-73
2022/01/10 03:44:16;;;;;;;21.77;19.05;;;26.20;99.90;;;;;;5056457;28;20033;-71
2022/01/10 03:46:43;;;;;;;20.88;15.18;;;26.20;99.90;;;;;;5056087;28;20035;-72
2022/01/10 03:49:10;;;;;;;19.17;15.45;;;26.20;99.90;;;;;;5055679;28;20363;-71
2022/01/10 03:51:36;;;;;;;145.50;99.57;;;26.20;99.90;;;;;;5056802;28;20029;-75
2022/01/10 03:54:03;;;;;;;68.95;51.20;;;26.20;99.90;;;;;;5056343;28;20057;-72
2022/01/10 03:56:31;;;;;;;88.00;62.53;;;26.20;99.90;;;;;;5056257;28;20017;-72
2022/01/10 03:58:58;;;;;;;40.08;26.52;;;26.20;99.90;;;;;;5056553;28;20024;-70
2022/01/10 04:01:25;;;;;;;24.75;18.45;;;26.10;99.90;;;;;;5056583;28;20389;-70
2022/01/10 04:03:53;;;;;;;21.83;18.60;;;26.10;99.90;;;;;;5056261;28;20481;-71
2022/01/10 04:06:20;;;;;;;22.90;16.98;;;26.10;99.90;;;;;;5056501;28;20037;-72
2022/01/10 04:08:46;;;;;;;21.70;15.40;;;26.00;99.90;;;;;;5056382;28;20052;-71
2022/01/10 04:11:13;;;;;;;14.10;12.32;;;26.00;99.90;;;;;;5049524;28;20017;-73
2022/01/10 04:13:40;;;;;;;22.55;12.90;;;26.00;99.90;;;;;;5056135;28;20583;-70
2022/01/10 04:16:07;;;;;;;13.98;10.27;;;26.00;99.90;;;;;;5057432;28;20381;-72
2022/01/10 04:18:34;;;;;;;21.23;10.85;;;26.00;99.90;;;;;;5057297;28;20029;-69
2022/01/10 04:21:01;;;;;;;18.42;11.77;;;26.00;99.90;;;;;;5056230;28;20032;-72
2022/01/10 04:23:27;;;;;;;26.58;18.75;;;26.00;99.90;;;;;;5055419;28;20029;-72
2022/01/10 04:25:54;;;;;;;24.58;16.00;;;26.00;99.90;;;;;;5055352;28;20071;-77
2022/01/10 04:28:21;;;;;;;28.15;17.95;;;26.10;99.90;;;;;;5055895;28;20049;-73
2022/01/10 04:30:48;;;;;;;27.60;18.88;;;26.10;99.90;;;;;;5056202;28;20070;-73
2022/01/10 04:33:18;;;;;;;24.30;15.02;;;26.10;99.90;;;;;;5055457;28;20029;-74
2022/01/10 04:35:46;;;;;;;25.35;16.27;;;26.00;99.90;;;;;;5053875;28;20120;-72
2022/01/10 04:38:12;;;;;;;32.72;18.80;;;26.00;99.90;;;;;;5055527;28;20048;-75
2022/01/10 04:40:39;;;;;;;38.17;24.48;;;26.00;99.90;;;;;;5050262;28;20025;-75
2022/01/10 04:43:06;;;;;;;33.15;21.30;;;26.00;99.90;;;;;;5055004;28;20071;-77
2022/01/10 04:45:33;;;;;;;35.78;20.52;;;26.00;99.90;;;;;;5056657;28;20179;-75
2022/01/10 04:47:59;;;;;;;30.60;18.98;;;26.00;99.90;;;;;;5054155;28;20038;-74
2022/01/10 04:52:55;;;;;;;28.40;15.98;;;25.90;99.90;;;;;;5053551;28;20043;-75
2022/01/10 04:55:21;;;;;;;38.75;13.65;;;25.80;99.90;;;;;;5053641;28;20055;-75
2022/01/10 04:57:48;;;;;;;14.85;9.05;;;25.70;99.90;;;;;;5047666;28;20055;-74
2022/01/10 05:00:16;;;;;;;13.77;6.65;;;25.60;99.90;;;;;;5053919;28;20043;-74
2022/01/10 05:02:46;;;;;;;13.10;5.78;;;25.40;99.90;;;;;;5054605;28;20052;-74
2022/01/10 05:05:13;;;;;;;12.35;6.68;;;25.20;99.90;;;;;;5054882;28;20032;-75
2022/01/10 05:07:40;;;;;;;9.30;5.95;;;25.10;99.90;;;;;;5052444;28;20037;-74
2022/01/10 05:10:07;;;;;;;13.25;7.72;;;25.20;99.90;;;;;;5054260;28;20129;-75
2022/01/10 05:12:33;;;;;;;12.68;7.88;;;25.20;99.90;;;;;;5054152;28;20033;-73
2022/01/10 05:15:00;;;;;;;14.18;9.30;;;25.30;99.90;;;;;;5055400;28;20059;-73
2022/01/10 05:17:27;;;;;;;12.95;8.10;;;25.30;99.90;;;;;;5054602;28;20458;-72
2022/01/10 05:19:53;;;;;;;12.90;5.68;;;25.40;99.90;;;;;;5054902;28;20048;-74
2022/01/10 05:22:20;;;;;;;9.85;5.88;;;25.40;99.90;;;;;;5054300;28;20024;-73
2022/01/10 05:24:47;;;;;;;7.43;4.60;;;25.50;99.90;;;;;;5054157;28;20595;-73
2022/01/10 05:27:14;;;;;;;11.85;5.50;;;25.50;99.90;;;;;;5054008;28;20481;-74
2022/01/10 05:29:40;;;;;;;9.85;4.70;;;25.50;99.90;;;;;;5054379;28;20041;-74
2022/01/10 05:32:07;;;;;;;18.60;4.63;;;25.50;99.90;;;;;;5053516;28;20545;-76
2022/01/10 05:34:34;;;;;;;11.95;4.70;;;25.60;99.90;;;;;;5054071;28;20064;-73
2022/01/10 05:37:01;;;;;;;9.73;5.25;;;25.50;99.90;;;;;;5051544;28;20059;-73
2022/01/10 05:39:27;;;;;;;11.88;5.28;;;25.60;99.90;;;;;;5051563;28;20120;-74
2022/01/10 05:41:54;;;;;;;7.03;5.25;;;25.60;99.90;;;;;;5050907;28;20097;-75
2022/01/10 05:44:21;;;;;;;7.10;4.97;;;25.70;99.90;;;;;;5052389;28;20482;-73
2022/01/10 05:46:47;;;;;;;7.03;5.10;;;25.60;99.90;;;;;;5049677;28;20116;-74
2022/01/10 05:49:16;;;;;;;9.05;5.65;;;25.60;99.90;;;;;;5039629;28;20029;-74
2022/01/10 05:51:42;;;;;;;8.65;5.43;;;25.50;99.90;;;;;;5051872;28;20795;-73
2022/01/10 05:54:09;;;;;;;9.85;5.82;;;25.50;99.90;;;;;;5053240;28;20029;-74
2022/01/10 05:56:36;;;;;;;15.18;6.20;;;25.60;99.90;;;;;;5047534;28;20020;-75
2022/01/10 05:59:03;;;;;;;11.27;6.45;;;25.60;99.90;;;;;;5051590;28;20021;-76
2022/01/10 06:01:30;;;;;;;11.77;6.88;;;25.70;99.90;;;;;;5050743;28;20021;-74
2022/01/10 06:03:57;;;;;;;11.35;7.97;;;25.80;99.90;;;;;;5054131;28;20623;-73
2022/01/10 06:06:23;;;;;;;11.40;9.00;;;25.80;99.90;;;;;;5053831;28;20021;-74
2022/01/10 06:08:50;;;;;;;11.50;8.48;;;25.90;99.90;;;;;;5050540;28;20059;-73
2022/01/10 06:11:17;;;;;;;18.10;11.05;;;25.90;99.90;;;;;;5051598;28;20027;-74
2022/01/10 06:13:43;;;;;;;12.88;9.68;;;25.90;99.90;;;;;;5052031;28;20364;-72
2022/01/10 06:16:10;;;;;;;18.23;9.10;;;25.90;99.90;;;;;;5051056;28;20025;-74
2022/01/10 06:18:37;;;;;;;12.27;8.07;;;25.90;99.90;;;;;;5050212;28;20074;-73
2022/01/10 06:21:03;;;;;;;26.20;16.13;;;26.00;99.90;;;;;;5043104;28;20056;-75
2022/01/10 06:23:30;;;;;;;33.22;23.88;;;25.90;99.90;;;;;;5048455;28;20557;-73
2022/01/10 06:25:57;;;;;;;19.15;15.15;;;26.00;99.90;;;;;;5050154;28;20052;-75
2022/01/10 06:28:23;;;;;;;42.35;31.40;;;26.00;99.90;;;;;;5051476;28;20049;-74
2022/01/10 06:30:50;;;;;;;14.80;11.27;;;26.00;99.90;;;;;;5052468;28;20025;-75
2022/01/10 06:33:17;;;;;;;130.80;94.28;;;26.10;99.90;;;;;;5052288;28;20108;-73
2022/01/10 06:35:43;;;;;;;69.75;43.20;;;26.00;99.90;;;;;;5053122;28;20072;-75
2022/01/10 06:38:10;;;;;;;13.90;9.48;;;26.10;99.90;;;;;;5052879;28;20087;-75
2022/01/10 06:40:37;;;;;;;19.67;12.00;;;26.10;99.90;;;;;;5052631;28;20529;-76
2022/01/10 06:43:04;;;;;;;19.95;14.70;;;26.10;99.90;;;;;;5052302;28;20025;-76
2022/01/10 06:45:31;;;;;;;19.05;15.07;;;26.10;99.90;;;;;;5052652;28;20025;-73
2022/01/10 06:47:58;;;;;;;20.40;13.30;;;26.10;99.90;;;;;;5051924;28;20021;-75
2022/01/10 06:50:25;;;;;;;18.73;14.55;;;26.10;99.90;;;;;;5052333;28;20407;-76
2022/01/10 06:52:54;;;;;;;19.20;14.93;;;26.10;99.90;;;;;;5052690;28;20036;-77
2022/01/10 06:55:21;;;;;;;19.60;13.70;;;26.20;99.90;;;;;;5052249;28;20032;-75
2022/01/10 06:57:47;;;;;;;17.20;14.50;;;26.20;99.90;;;;;;5052545;28;20017;-75
2022/01/10 07:00:14;;;;;;;13.85;12.20;;;26.10;99.90;;;;;;5053094;28;20029;-74
2022/01/10 07:02:43;;;;;;;17.08;12.45;;;26.10;99.90;;;;;;5052995;28;20107;-71
2022/01/10 07:05:10;;;;;;;20.92;14.90;;;26.20;99.90;;;;;;5053936;28;20040;-74
2022/01/10 07:07:37;;;;;;;21.33;14.75;;;26.20;99.90;;;;;;5054041;28;20071;-70
2022/01/10 07:10:05;;;;;;;25.20;19.58;;;26.10;99.90;;;;;;5054018;28;20040;-72
2022/01/10 07:12:31;;;;;;;26.80;21.08;;;26.20;99.90;;;;;;5052815;28;20021;-72
2022/01/10 07:14:58;;;;;;;26.75;22.58;;;26.10;99.90;;;;;;5053831;28;20060;-72
2022/01/10 07:17:25;;;;;;;26.95;22.42;;;26.20;99.90;;;;;;5052115;28;20074;-74
2022/01/10 07:19:51;;;;;;;24.13;19.20;;;26.10;99.90;;;;;;5052506;28;20026;-71
2022/01/10 07:22:18;;;;;;;22.15;16.70;;;26.10;99.90;;;;;;5052771;28;20037;-74
2022/01/10 07:24:45;;;;;;;21.52;14.93;;;26.00;99.90;;;;;;5052409;28;20027;-71
2022/01/10 07:27:11;;;;;;;16.85;10.98;;;26.00;99.90;;;;;;5052409;28;20025;-71
2022/01/10 07:29:38;;;;;;;15.88;10.90;;;26.00;99.90;;;;;;5052076;28;20056;-73
2022/01/10 07:32:06;;;;;;;12.85;9.45;;;26.00;99.90;;;;;;5052636;28;20108;-73
2022/01/10 07:34:33;;;;;;;18.30;9.80;;;26.00;99.90;;;;;;5051311;28;20498;-74
2022/01/10 07:36:59;;;;;;;18.15;11.07;;;26.00;99.90;;;;;;5052170;28;20032;-73
2022/01/10 07:39:26;;;;;;;13.55;8.57;;;26.00;99.90;;;;;;5052460;28;20013;-72
2022/01/10 07:41:53;;;;;;;14.27;8.38;;;26.00;99.90;;;;;;5051527;28;20107;-72
2022/01/10 07:44:19;;;;;;;13.60;6.40;;;26.00;99.90;;;;;;5052068;28;20051;-72
2022/01/10 07:46:46;;;;;;;12.02;6.63;;;26.00;99.90;;;;;;5051603;28;20017;-72
2022/01/10 07:49:12;;;;;;;8.30;5.10;;;25.90;99.90;;;;;;5052535;28;20029;-72
2022/01/10 07:51:39;;;;;;;6.32;4.32;;;26.00;99.90;;;;;;5052311;28;20019;-72
2022/01/10 07:54:06;;;;;;;9.10;5.35;;;26.00;99.90;;;;;;5052142;28;20021;-72
2022/01/10 07:56:33;;;;;;;6.03;4.75;;;26.00;99.90;;;;;;5049228;28;20119;-73
2022/01/10 07:58:59;;;;;;;6.82;4.60;;;26.00;99.90;;;;;;5050349;28;20456;-73
2022/01/10 08:01:26;;;;;;;11.23;5.32;;;26.00;99.90;;;;;;5042783;28;20040;-72
2022/01/10 08:03:53;;;;;;;15.38;6.93;;;26.10;99.90;;;;;;5047807;28;20040;-72
2022/01/10 08:06:21;;;;;;;11.68;8.15;;;26.10;99.90;;;;;;5050849;28;20470;-73
2022/01/10 08:08:47;;;;;;;16.80;10.27;;;26.10;99.90;;;;;;5046016;28;20390;-73
2022/01/10 08:11:14;;;;;;;19.35;9.15;;;26.10;99.90;;;;;;5049884;28;20040;-72
2022/01/10 08:13:44;;;;;;;14.93;9.50;;;26.20;99.90;;;;;;5051927;28;20470;-73
2022/01/10 08:16:11;;;;;;;17.33;11.48;;;26.20;99.90;;;;;;5053178;28;20075;-75
2022/01/10 08:18:41;;;;;;;25.13;13.63;;;26.20;99.90;;;;;;5050224;28;20436;-73
2022/01/10 08:21:07;;;;;;;22.98;16.33;;;26.30;99.90;;;;;;5049780;28;20029;-75
2022/01/10 08:23:34;;;;;;;23.58;18.35;;;26.30;99.90;;;;;;5052300;28;20032;-72
2022/01/10 08:26:03;;;;;;;38.72;20.00;;;26.40;99.90;;;;;;5056088;28;20466;-73
2022/01/10 08:28:31;;;;;;;33.63;22.48;;;26.40;99.90;;;;;;5058063;28;20064;-73
2022/01/10 08:30:57;;;;;;;30.95;25.38;;;26.50;99.90;;;;;;5059668;28;20021;-75
2022/01/10 08:33:24;;;;;;;34.55;26.65;;;26.50;99.90;;;;;;5055945;28;20490;-73
2022/01/10 08:35:51;;;;;;;41.13;28.65;;;26.50;99.90;;;;;;5055855;28;20029;-73
2022/01/10 08:38:19;;;;;;;36.25;28.55;;;26.50;99.90;;;;;;5055024;28;20029;-72
2022/01/10 08:40:46;;;;;;;38.40;29.63;;;26.50;99.90;;;;;;5055382;28;20052;-72
2022/01/10 08:43:12;;;;;;;38.50;29.88;;;26.50;99.90;;;;;;5054988;28;20029;-72
2022/01/10 08:45:40;;;;;;;39.30;29.70;;;26.50;99.90;;;;;;5055558;28;20505;-72
2022/01/10 08:48:07;;;;;;;41.03;29.83;;;26.50;99.90;;;;;;5055688;28;20040;-73
2022/01/10 08:50:34;;;;;;;109.43;76.45;;;26.50;99.90;;;;;;5055642;28;20021;-72
2022/01/10 08:53:06;;;;;;;43.50;31.83;;;26.50;99.90;;;;;;5055243;28;20036;-71
2022/01/10 08:55:33;;;;;;;37.28;27.55;;;26.50;99.90;;;;;;5055782;28;20108;-72
2022/01/10 08:58:01;;;;;;;35.83;22.67;;;26.60;99.90;;;;;;5056033;28;20025;-74
2022/01/10 09:00:28;;;;;;;28.17;19.98;;;26.60;99.90;;;;;;5055075;28;20021;-73
2022/01/10 09:02:55;;;;;;;31.13;21.40;;;26.60;99.90;;;;;;5054735;28;20025;-74
2022/01/10 09:05:22;;;;;;;35.30;25.20;;;26.60;99.90;;;;;;5055388;28;20074;-73
2022/01/10 09:07:49;;;;;;;39.42;28.88;;;26.50;99.90;;;;;;5054265;28;20382;-73
2022/01/10 09:10:16;;;;;;;41.53;30.92;;;26.50;99.90;;;;;;5054678;28;20036;-73
2022/01/10 09:12:42;;;;;;;40.58;32.10;;;26.50;99.90;;;;;;5054797;28;20486;-73
2022/01/10 09:15:10;;;;;;;34.90;30.00;;;26.50;99.90;;;;;;5055049;28;20032;-72
2022/01/10 09:17:37;;;;;;;35.00;26.55;;;26.50;99.90;;;;;;5055246;28;20438;-72
2022/01/10 09:20:04;;;;;;;30.33;22.25;;;26.50;99.90;;;;;;5054952;28;20025;-73
2022/01/10 09:22:31;;;;;;;23.88;18.67;;;26.50;99.90;;;;;;5054615;28;20021;-73
2022/01/10 09:24:59;;;;;;;20.50;16.90;;;26.50;99.90;;;;;;5054360;28;20056;-72
2022/01/10 09:27:26;;;;;;;19.00;15.40;;;26.50;99.90;;;;;;5055412;28;20036;-73
2022/01/10 09:29:53;;;;;;;19.42;14.95;;;26.50;99.90;;;;;;5055355;28;20056;-74
2022/01/10 09:32:20;;;;;;;21.90;15.77;;;26.50;99.90;;;;;;5055574;28;20367;-74
2022/01/10 09:34:46;;;;;;;32.22;20.58;;;26.50;99.90;;;;;;5055204;28;20019;-72
2022/01/10 09:37:13;;;;;;;28.42;18.85;;;26.50;99.90;;;;;;5056289;28;20033;-73
2022/01/10 09:39:40;;;;;;;31.02;20.13;;;26.50;99.90;;;;;;5054795;28;20017;-74
2022/01/10 09:42:07;;;;;;;27.25;19.00;;;26.50;99.90;;;;;;5055246;28;20040;-74
2022/01/10 09:44:34;;;;;;;23.15;14.65;;;26.50;99.90;;;;;;5055454;28;20036;-71
2022/01/10 09:47:02;;;;;;;16.42;12.50;;;26.50;99.90;;;;;;5055463;28;20029;-72
2022/01/10 09:49:28;;;;;;;16.70;10.48;;;26.50;99.90;;;;;;5055327;28;20107;-72
2022/01/10 09:51:55;;;;;;;23.08;11.68;;;26.60;99.90;;;;;;5054923;28;20033;-72
2022/01/10 09:54:22;;;;;;;14.25;9.57;;;26.60;99.90;;;;;;5054664;28;20036;-72
2022/01/10 09:56:49;;;;;;;11.32;9.73;;;26.50;99.90;;;;;;5055119;28;20025;-74
2022/01/10 09:59:16;;;;;;;16.90;10.90;;;26.50;99.90;;;;;;5049820;28;20024;-74
2022/01/10 10:01:45;;;;;;;34.00;27.95;;;26.50;99.90;;;;;;5045827;28;20089;-73
2022/01/10 10:04:13;;;;;;;81.82;57.17;;;26.50;99.90;;;;;;5053960;28;20021;-73
2022/01/10 10:06:40;;;;;;;92.05;68.40;;;26.50;99.90;;;;;;5054181;28;20461;-74
2022/01/10 10:09:09;;;;;;;110.00;80.25;;;26.60;99.90;;;;;;5055115;28;20029;-75
2022/01/10 10:11:43;;;;;;;33.05;26.33;;;26.60;99.90;;;;;;5054229;28;20024;-73
2022/01/10 10:14:12;;;;;;;26.90;22.05;;;26.60;99.90;;;;;;5054211;28;20060;-76
2022/01/10 10:16:46;;;;;;;27.67;22.08;;;26.60;99.90;;;;;;5054242;28;20485;-72
2022/01/10 10:19:13;;;;;;;28.45;21.60;;;26.60;99.90;;;;;;5046565;28;20039;-75
2022/01/10 10:21:40;;;;;;;27.27;19.70;;;26.60;99.90;;;;;;5053594;28;20029;-76
2022/01/10 10:24:07;;;;;;;26.33;18.33;;;26.60;99.90;;;;;;5053738;28;20036;-75
2022/01/10 10:26:34;;;;;;;19.50;12.88;;;26.60;99.90;;;;;;5053881;28;20021;-72
2022/01/10 10:29:01;;;;;;;21.48;13.23;;;26.50;99.90;;;;;;5058615;28;20472;-75
2022/01/10 10:31:30;;;;;;;22.48;15.02;;;26.50;99.90;;;;;;5068240;28;20093;-73
2022/01/10 10:33:58;;;;;;;22.35;15.32;;;26.50;99.90;;;;;;5053548;28;20308;-75
2022/01/10 10:36:26;;;;;;;19.52;13.00;;;26.50;99.90;;;;;;5054142;28;20086;-75
2022/01/10 10:38:55;;;;;;;22.27;14.02;;;26.50;99.90;;;;;;5053360;28;20032;-75
2022/01/10 10:41:22;;;;;;;26.75;14.68;;;26.50;99.90;;;;;;5053125;28;20017;-74
2022/01/10 10:43:54;;;;;;;36.83;16.50;;;26.50;99.90;;;;;;5054364;28;20104;-69
2022/01/10 10:46:26;;;;;;;27.42;16.38;;;26.50;99.90;;;;;;5052628;28;20485;-71
2022/01/10 10:48:58;;;;;;;25.80;15.57;;;26.50;99.90;;;;;;5054069;28;20037;-68
2022/01/10 10:51:28;;;;;;;29.00;16.65;;;26.50;99.90;;;;;;5054466;28;20033;-67
2022/01/10 10:54:09;;;;;;;112.50;73.30;;;26.50;99.90;;;;;;5054980;28;20414;-67
2022/01/10 10:56:39;;;;;;;53.13;41.85;;;26.50;99.90;;;;;;5048109;28;20036;-68
2022/01/10 10:59:11;;;;;;;40.95;24.92;;;26.50;99.90;;;;;;5048769;28;20036;-69
2022/01/10 11:01:40;;;;;;;41.30;27.00;;;26.50;99.90;;;;;;5050607;28;20473;-77
2022/01/10 11:04:11;;;;;;;94.82;71.60;;;26.50;99.90;;;;;;5054035;28;20029;-73
2022/01/10 11:06:40;;;;;;;97.70;62.35;;;26.50;99.90;;;;;;5053707;28;20049;-70
2022/01/10 11:09:12;;;;;;;40.53;28.83;;;26.40;99.90;;;;;;5053135;28;20012;-69
2022/01/10 11:11:40;;;;;;;41.72;26.40;;;26.40;99.90;;;;;;5053771;28;20029;-69
2022/01/10 11:14:10;;;;;;;41.35;26.98;;;26.40;99.90;;;;;;5052991;28;20017;-71
2022/01/10 11:16:39;;;;;;;34.78;24.95;;;26.50;99.90;;;;;;5054665;28;20025;-73
2022/01/10 11:19:13;;;;;;;31.27;21.70;;;26.50;99.90;;;;;;5053749;28;20454;-71
2022/01/10 11:21:45;;;;;;;36.03;24.67;;;26.40;99.90;;;;;;5053521;28;20032;-71
2022/01/10 11:24:12;;;;;;;43.30;26.30;;;26.30;99.90;;;;;;5053051;28;20021;-69
2022/01/10 11:26:43;;;;;;;38.88;26.90;;;26.30;99.90;;;;;;5052248;28;20258;-70
2022/01/10 11:29:13;;;;;;;35.65;23.25;;;26.30;99.90;;;;;;5052972;28;20068;-70
2022/01/10 11:31:41;;;;;;;35.65;24.23;;;26.20;99.90;;;;;;5052684;28;20545;-72
2022/01/10 11:34:08;;;;;;;41.20;25.08;;;26.10;99.90;;;;;;5053403;28;20021;-73
2022/01/10 11:36:34;;;;;;;39.17;26.77;;;26.10;99.90;;;;;;5052997;28;20480;-72
2022/01/10 11:39:09;;;;;;;39.30;28.63;;;26.10;99.90;;;;;;5053504;28;20021;-71
2022/01/10 11:41:36;;;;;;;43.33;30.55;;;26.10;99.90;;;;;;5051749;28;20025;-70
2022/01/10 11:44:08;;;;;;;48.60;30.38;;;26.10;99.90;;;;;;5053580;28;20108;-72
2022/01/10 11:46:48;;;;;;;59.97;37.90;;;26.10;99.90;;;;;;5053292;28;20025;-71
2022/01/10 11:49:19;;;;;;;55.67;36.22;;;26.10;99.90;;;;;;5052471;28;20031;-72
2022/01/10 11:51:50;;;;;;;56.80;40.03;;;26.10;99.90;;;;;;5052708;28;20037;-73
2022/01/10 11:54:30;;;;;;;65.97;42.22;;;26.10;99.90;;;;;;5053488;28;20028;-71
2022/01/10 11:56:59;;;;;;;56.55;39.35;;;26.10;99.90;;;;;;5053230;28;20024;-71
2022/01/10 11:59:33;;;;;;;160.95;123.10;;;26.10;99.90;;;;;;5056506;28;20021;-69
2022/01/10 12:02:09;;;;;;;619.33;441.80;;;26.10;99.90;;;;;;5056592;28;20363;-74
2022/01/10 12:04:43;;;;;;;62.40;44.75;;;26.10;99.90;;;;;;5056272;28;20078;-72
2022/01/10 12:07:12;;;;;;;64.32;34.55;;;26.20;99.90;;;;;;5056731;28;20359;-74
2022/01/10 12:09:39;;;;;;;145.32;108.38;;;26.30;99.90;;;;;;5056874;28;20040;-76
2022/01/10 12:12:09;;;;;;;88.80;66.80;;;26.20;99.90;;;;;;5056084;28;20033;-75
2022/01/10 12:14:36;;;;;;;112.38;72.63;;;26.20;99.90;;;;;;5056433;28;20029;-74
2022/01/10 12:17:03;;;;;;;75.95;60.15;;;26.20;99.90;;;;;;5056193;28;20025;-76
2022/01/10 12:19:30;;;;;;;166.82;131.88;;;26.20;99.90;;;;;;5056310;28;20017;-75
2022/01/10 12:21:57;;;;;;;106.38;81.72;;;26.20;99.90;;;;;;5055835;28;20094;-77
2022/01/10 12:24:24;;;;;;;50.92;28.45;;;26.20;99.90;;;;;;5054319;28;20503;-77
2022/01/10 12:26:52;;;;;;;287.20;234.23;;;26.20;99.90;;;;;;5054541;28;20045;-76
2022/01/10 12:29:19;;;;;;;51.63;37.15;;;26.20;99.90;;;;;;5055131;28;20044;-76
2022/01/10 12:31:47;;;;;;;96.85;55.72;;;26.20;99.90;;;;;;5054603;28;20067;-73
2022/01/10 12:34:15;;;;;;;88.03;62.67;;;26.20;99.90;;;;;;5052033;28;20032;-77
2022/01/10 12:36:43;;;;;;;38.33;25.90;;;26.30;99.90;;;;;;5053147;28;20535;-71
2022/01/10 12:39:20;;;;;;;42.78;27.40;;;26.20;99.90;;;;;;5051420;28;20354;-72
2022/01/10 12:41:48;;;;;;;29.90;21.58;;;26.30;99.90;;;;;;5056193;28;20013;-75